Time;durP1;ratioP1;P1;durP2;ratioP2;P2;SDS_P1;SDS_P2;PMS_P1;PMS_P2;Temp;Humidity;BMP_temperature;BMP_pressure;BME280_temperature;BME280_humidity;BME280_pressure;Samples;Min_cycle;Max_cycle;Signal;HPM_P1;HPM_P2
2021/04/22 00:00:41;;;;;;;9.10;5.85;;;;;;;29.64;31.33;158959.02;1737063;82;21312;-75
2021/04/22 00:03:15;;;;;;;10.60;6.97;;;;;;;29.75;31.25;158988.31;1752040;80;21884;-75
2021/04/22 00:05:48;;;;;;;11.75;6.62;;;;;;;29.80;31.11;159001.66;1749416;80;21365;-76
2021/04/22 00:08:20;;;;;;;11.48;6.40;;;;;;;29.95;31.04;159041.69;1738608;80;21183;-75
2021/04/22 00:10:54;;;;;;;8.80;6.62;;;;;;;29.93;31.04;159037.61;1733915;82;21321;-75
2021/04/22 00:13:29;;;;;;;8.83;5.62;;;;;;;29.80;31.17;159001.66;1726302;82;21724;-75
2021/04/22 00:16:04;;;;;;;11.30;6.20;;;;;;;29.68;31.35;158969.69;1737646;82;21711;-75
2021/04/22 00:18:36;;;;;;;11.70;6.47;;;;;;;29.68;31.31;158969.69;1736980;82;21373;-75
2021/04/22 00:21:08;;;;;;;12.35;6.33;;;;;;;29.68;31.33;158969.69;1738459;80;21721;-76
2021/04/22 00:23:40;;;;;;;10.72;6.12;;;;;;;29.75;31.21;158988.31;1748107;80;21308;-75
2021/04/22 00:26:13;;;;;;;12.00;6.83;;;;;;;29.67;31.23;158967.03;1740061;80;21837;-75
2021/04/22 00:28:45;;;;;;;10.53;5.75;;;;;;;29.54;31.35;158933.75;1740941;82;21320;-74
2021/04/22 00:31:18;;;;;;;12.90;6.85;;;;;;;29.40;31.50;158895.09;1741284;82;21741;-75
2021/04/22 00:33:50;;;;;;;11.57;7.62;;;;;;;29.45;31.43;158909.75;1744317;81;21553;-76
2021/04/22 00:36:24;;;;;;;11.97;7.10;;;;;;;29.43;31.47;158904.45;1772912;81;21341;-76
2021/04/22 00:38:57;;;;;;;13.50;7.50;;;;;;;29.36;31.53;158885.73;1767603;81;22441;-76
2021/04/22 00:41:29;;;;;;;10.08;7.35;;;;;;;29.15;31.77;158828.52;1772262;80;21348;-76
2021/04/22 00:44:03;;;;;;;12.03;6.92;;;;;;;29.29;31.65;158864.44;1775656;80;21871;-75
2021/04/22 00:46:36;;;;;;;11.15;7.05;;;;;;;29.16;31.84;158831.17;1778004;80;21328;-75
2021/04/22 00:49:09;;;;;;;10.13;7.08;;;;;;;29.39;31.73;158893.78;1777919;80;21890;-74
2021/04/22 00:51:42;;;;;;;12.10;6.08;;;;;;;29.54;31.50;158932.39;1777393;80;21229;-75
2021/04/22 00:54:15;;;;;;;8.63;5.72;;;;;;;29.49;31.51;158920.41;1777190;80;21220;-75
2021/04/22 00:56:50;;;;;;;9.95;5.87;;;;;;;29.49;31.51;158919.09;1777978;80;21198;-75
2021/04/22 00:59:22;;;;;;;11.15;5.83;;;;;;;29.44;31.57;158905.77;1771519;80;21194;-75
2021/04/22 01:01:55;;;;;;;7.60;5.87;;;;;;;29.38;31.64;158889.81;1766208;80;21182;-75
2021/04/22 01:04:28;;;;;;;9.45;6.10;;;;;;;29.39;31.61;158892.47;1777626;80;21614;-75
2021/04/22 01:07:02;;;;;;;9.78;5.85;;;;;;;29.35;31.60;158881.75;1774118;80;21150;-75
2021/04/22 01:09:34;;;;;;;10.55;6.33;;;;;;;29.34;31.61;158877.78;1775452;80;21166;-75
2021/04/22 01:12:08;;;;;;;10.93;6.03;;;;;;;29.18;31.72;158836.47;1776096;80;21350;-75
2021/04/22 01:14:41;;;;;;;9.73;6.03;;;;;;;29.12;31.76;158819.16;1772051;81;21216;-74
2021/04/22 01:17:13;;;;;;;7.83;5.87;;;;;;;29.12;31.87;158820.50;1766987;81;21360;-75
2021/04/22 01:19:55;;;;;;;7.92;5.53;;;;;;;28.97;31.93;158780.56;1776158;80;21446;-74
2021/04/22 01:22:28;;;;;;;9.58;5.97;;;;;;;28.93;31.99;158768.58;1777549;80;21182;-75
2021/04/22 01:25:00;;;;;;;8.00;5.60;;;;;;;29.01;31.86;158789.86;1778191;80;21364;-75
2021/04/22 01:27:33;;;;;;;8.88;6.22;;;;;;;28.93;31.95;158769.94;1749664;80;21316;-75
2021/04/22 01:30:08;;;;;;;8.40;5.72;;;;;;;28.69;32.02;158704.64;1719433;82;21201;-79
2021/04/22 01:32:41;;;;;;;9.15;5.80;;;;;;;29.08;31.71;158809.84;1748447;82;21213;-76
2021/04/22 01:35:17;;;;;;;8.15;5.80;;;;;;;29.05;31.74;158801.84;1728017;82;21316;-75
2021/04/22 01:37:52;;;;;;;9.63;6.33;;;;;;;29.21;31.54;158844.47;1728207;82;21375;-75
2021/04/22 01:40:25;;;;;;;8.75;5.85;;;;;;;29.12;31.60;158819.16;1748574;82;21426;-75
2021/04/22 01:42:58;;;;;;;13.90;5.65;;;;;;;29.16;31.58;158831.17;1727404;82;21198;-75
2021/04/22 01:45:30;;;;;;;8.68;6.10;;;;;;;29.24;31.58;158851.09;1737466;82;21368;-74
2021/04/22 01:48:02;;;;;;;9.73;6.20;;;;;;;29.07;31.65;158805.86;1745442;82;21732;-75
2021/04/22 01:50:36;;;;;;;10.72;6.67;;;;;;;28.96;31.76;158776.58;1746713;82;21810;-75
2021/04/22 01:53:09;;;;;;;11.95;6.62;;;;;;;28.91;31.77;158763.25;1727740;82;21241;-76
2021/04/22 01:55:47;;;;;;;9.88;6.25;;;;;;;28.92;31.70;158765.91;1747968;82;21217;-75
2021/04/22 01:58:22;;;;;;;10.85;6.90;;;;;;;28.87;31.75;158752.62;1748501;82;21202;-75
2021/04/22 02:00:57;;;;;;;9.95;6.45;;;;;;;28.66;31.95;158698.00;1748291;82;21269;-76
2021/04/22 02:03:33;;;;;;;9.03;6.30;;;;;;;28.73;31.85;158716.61;1747122;82;21427;-75
2021/04/22 02:06:06;;;;;;;9.80;6.80;;;;;;;28.77;31.75;158727.28;1727488;82;21395;-75
2021/04/22 02:08:39;;;;;;;9.28;5.97;;;;;;;28.63;31.88;158688.69;1735268;82;21418;-74
2021/04/22 02:11:14;;;;;;;9.95;6.87;;;;;;;29.06;31.49;158803.20;1720972;82;21337;-75
2021/04/22 02:13:46;;;;;;;9.03;6.60;;;;;;;28.97;31.55;158780.56;1741675;82;21370;-74
2021/04/22 02:16:18;;;;;;;10.48;6.05;;;;;;;28.75;31.64;158721.94;1747879;82;21320;-74
2021/04/22 02:18:50;;;;;;;9.88;6.42;;;;;;;28.84;31.53;158744.64;1748224;82;21223;-74
2021/04/22 02:21:23;;;;;;;13.22;7.20;;;;;;;28.91;31.57;158764.61;1744603;82;21388;-75
2021/04/22 02:23:55;;;;;;;14.18;6.87;;;;;;;28.83;31.57;158741.97;1730456;82;21189;-75
2021/04/22 02:26:27;;;;;;;10.15;5.92;;;;;;;28.68;31.74;158703.33;1718781;82;21396;-75
2021/04/22 02:29:00;;;;;;;11.20;6.67;;;;;;;28.64;31.78;158691.36;1712950;82;21323;-75
2021/04/22 02:31:32;;;;;;;11.30;6.70;;;;;;;28.48;31.97;158648.75;1713312;82;21856;-75
2021/04/22 02:34:04;;;;;;;8.43;6.12;;;;;;;28.40;32.14;158627.48;1718030;83;21328;-75
2021/04/22 02:36:37;;;;;;;9.63;6.08;;;;;;;28.29;32.26;158596.84;1717871;83;21907;-76
2021/04/22 02:39:09;;;;;;;8.53;5.72;;;;;;;28.29;32.35;158598.22;1723726;82;21217;-76
2021/04/22 02:41:42;;;;;;;7.25;5.25;;;;;;;28.83;31.79;158741.97;1735679;82;21253;-75
2021/04/22 02:44:16;;;;;;;8.85;5.95;;;;;;;28.69;31.88;158706.00;1716524;82;21352;-75
2021/04/22 02:46:48;;;;;;;7.78;5.47;;;;;;;28.83;31.79;158741.97;1710642;84;21372;-75
2021/04/22 02:49:21;;;;;;;8.88;5.50;;;;;;;29.16;31.40;158831.17;1734997;82;21249;-76
2021/04/22 02:51:53;;;;;;;8.00;5.53;;;;;;;29.15;31.36;158827.16;1722828;82;21860;-74
2021/04/22 02:54:25;;;;;;;8.23;5.70;;;;;;;29.07;31.45;158807.17;1714455;82;21379;-71
2021/04/22 02:56:58;;;;;;;10.18;5.55;;;;;;;29.03;31.43;158795.20;1714476;82;21289;-75
2021/04/22 02:59:30;;;;;;;9.20;5.85;;;;;;;28.89;31.59;158757.92;1716319;82;21611;-76
2021/04/22 03:02:02;;;;;;;7.97;5.58;;;;;;;29.08;31.43;158809.84;1721100;82;21889;-75
2021/04/22 03:04:35;;;;;;;8.25;5.95;;;;;;;29.10;31.50;158813.88;1732958;82;21332;-77
2021/04/22 03:07:07;;;;;;;9.35;5.75;;;;;;;29.14;31.31;158824.48;1723494;82;21200;-74
2021/04/22 03:09:40;;;;;;;10.10;6.62;;;;;;;29.09;31.31;158811.20;1732303;82;21642;-75
2021/04/22 03:12:13;;;;;;;7.28;5.28;;;;;;;28.86;31.49;158751.28;1726448;82;21359;-76
2021/04/22 03:14:45;;;;;;;12.00;5.90;;;;;;;28.83;31.50;158743.28;1727618;82;21183;-75
2021/04/22 03:17:17;;;;;;;9.05;5.95;;;;;;;28.79;31.57;158732.61;1722160;82;21228;-76
2021/04/22 03:19:49;;;;;;;8.60;5.70;;;;;;;28.54;31.78;158664.70;1716906;82;21323;-75
2021/04/22 03:22:22;;;;;;;8.38;6.15;;;;;;;28.62;31.69;158686.03;1725165;82;21155;-75
2021/04/22 03:24:54;;;;;;;9.68;6.28;;;;;;;28.68;31.61;158701.97;1716391;82;21838;-75
2021/04/22 03:27:27;;;;;;;14.40;6.60;;;;;;;28.66;31.61;158696.64;1720117;83;21177;-76
2021/04/22 03:30:00;;;;;;;12.33;6.40;;;;;;;28.64;31.65;158691.36;1720133;83;21366;-76
2021/04/22 03:32:32;;;;;;;8.73;5.65;;;;;;;28.64;31.70;158692.66;1732032;82;21839;-74
2021/04/22 03:35:06;;;;;;;8.78;5.55;;;;;;;28.57;31.69;158672.69;1748511;81;21237;-79
2021/04/22 03:37:38;;;;;;;9.10;5.80;;;;;;;28.43;31.82;158634.12;1747211;81;21269;-76
2021/04/22 03:40:15;;;;;;;10.23;6.33;;;;;;;28.26;32.00;158590.22;1763247;80;21338;-76
2021/04/22 03:42:48;;;;;;;10.80;7.25;;;;;;;28.32;31.93;158604.84;1760481;80;21434;-77
2021/04/22 03:45:21;;;;;;;12.45;7.40;;;;;;;28.13;32.25;158555.56;1762358;80;22891;-69
2021/04/22 03:47:54;;;;;;;9.13;6.17;;;;;;;28.28;32.09;158594.19;1748753;81;21332;-75
2021/04/22 03:50:26;;;;;;;8.43;5.87;;;;;;;28.22;32.07;158578.19;1747237;81;21230;-73
2021/04/22 03:52:59;;;;;;;10.38;6.53;;;;;;;28.04;32.38;158530.28;1748757;82;21955;-71
2021/04/22 03:55:31;;;;;;;9.78;7.60;;;;;;;28.22;32.19;158578.19;1747995;81;21336;-70
2021/04/22 03:58:04;;;;;;;12.30;7.60;;;;;;;28.23;32.24;158582.22;1746551;82;21375;-71
2021/04/22 04:00:36;;;;;;;10.48;7.90;;;;;;;28.43;32.09;158636.78;1745980;81;21326;-69
2021/04/22 04:03:09;;;;;;;11.85;7.85;;;;;;;28.59;31.98;158678.03;1748705;82;21371;-70
2021/04/22 04:05:42;;;;;;;11.88;7.60;;;;;;;28.33;32.26;158607.52;1746928;81;21166;-70
2021/04/22 04:08:15;;;;;;;13.28;7.72;;;;;;;28.47;32.17;158646.09;1738435;80;21226;-71
2021/04/22 04:10:48;;;;;;;13.50;8.15;;;;;;;28.22;32.29;158579.50;1749065;80;21277;-71
2021/04/22 04:13:20;;;;;;;11.63;7.42;;;;;;;28.77;31.90;158727.28;1746696;81;21831;-70
2021/04/22 04:15:53;;;;;;;13.50;7.60;;;;;;;28.62;32.07;158686.03;1746351;81;21383;-70
2021/04/22 04:18:25;;;;;;;14.03;7.20;;;;;;;28.70;32.02;158707.31;1741365;81;21359;-70
2021/04/22 04:20:58;;;;;;;9.83;6.05;;;;;;;28.73;31.95;158716.61;1747856;82;21587;-70
2021/04/22 04:23:30;;;;;;;12.10;6.72;;;;;;;28.75;31.95;158720.64;1746280;82;21852;-71
2021/04/22 04:26:03;;;;;;;9.13;6.30;;;;;;;28.82;31.88;158740.61;1747150;81;21431;-71
2021/04/22 04:28:35;;;;;;;9.90;6.22;;;;;;;28.71;32.05;158709.97;1730899;82;21230;-71
2021/04/22 04:31:07;;;;;;;9.80;6.67;;;;;;;28.97;31.92;158779.25;1730728;82;23602;-70
2021/04/22 04:33:39;;;;;;;9.63;6.62;;;;;;;29.07;31.81;158807.17;1726336;82;21186;-70
2021/04/22 04:36:12;;;;;;;13.18;7.00;;;;;;;29.75;31.30;158988.31;1729690;82;21223;-70
2021/04/22 04:38:45;;;;;;;11.18;6.95;;;;;;;29.86;31.39;159018.98;1721643;83;21317;-71
2021/04/22 04:41:20;;;;;;;9.80;6.42;;;;;;;30.01;31.34;159057.66;1724007;82;21400;-71
2021/04/22 04:43:52;;;;;;;10.58;6.28;;;;;;;30.14;31.09;159092.30;1744018;80;21226;-69
2021/04/22 04:46:25;;;;;;;9.98;6.65;;;;;;;30.04;31.37;159065.66;1725511;81;21868;-70
2021/04/22 04:48:59;;;;;;;10.88;6.85;;;;;;;30.08;31.30;159076.33;1751223;80;22336;-71
2021/04/22 04:51:32;;;;;;;8.13;6.20;;;;;;;29.91;31.51;159030.97;1710762;82;21281;-72
2021/04/22 04:54:05;;;;;;;9.65;6.60;;;;;;;29.80;31.50;159001.66;1748904;80;21690;-69
2021/04/22 04:56:37;;;;;;;8.15;6.20;;;;;;;29.96;31.28;159045.66;1725082;82;21368;-70
2021/04/22 04:59:10;;;;;;;10.60;6.85;;;;;;;30.16;31.01;159097.63;1723608;82;21325;-69
2021/04/22 05:01:42;;;;;;;11.43;6.25;;;;;;;30.09;31.11;159080.31;1725976;82;21872;-70
2021/04/22 05:04:15;;;;;;;12.40;6.30;;;;;;;30.29;31.01;159132.28;1726984;82;21404;-72
2021/04/22 05:06:47;;;;;;;8.90;5.75;;;;;;;30.56;30.74;159205.63;1722803;83;21413;-73
2021/04/22 05:09:20;;;;;;;8.30;6.10;;;;;;;30.80;30.59;159270.91;1711483;82;21356;-69
2021/04/22 05:11:55;;;;;;;9.25;6.05;;;;;;;31.03;30.38;159332.28;1764627;80;21407;-71
2021/04/22 05:14:27;;;;;;;8.58;6.30;;;;;;;31.23;30.31;159385.66;1777969;79;21219;-72
2021/04/22 05:17:00;;;;;;;9.08;6.37;;;;;;;31.32;29.93;159410.95;1767241;78;21367;-69
2021/04/22 05:19:33;;;;;;;9.60;6.67;;;;;;;31.42;29.89;159436.31;1787218;78;21380;-71
2021/04/22 05:22:05;;;;;;;8.68;6.33;;;;;;;31.33;30.11;159412.31;1784930;79;21356;-72
2021/04/22 05:24:37;;;;;;;8.90;6.05;;;;;;;31.39;29.81;159429.66;1788824;79;21344;-70
2021/04/22 05:27:10;;;;;;;10.13;6.15;;;;;;;31.47;29.78;159450.97;1781998;79;21246;-69
2021/04/22 05:29:43;;;;;;;11.15;6.50;;;;;;;31.51;29.67;159461.66;1786625;79;21859;-69
2021/04/22 05:32:15;;;;;;;9.03;5.90;;;;;;;31.68;29.51;159505.72;1782592;79;21301;-68
2021/04/22 05:34:48;;;;;;;8.75;6.45;;;;;;;31.57;29.78;159476.37;1783188;80;21341;-70
2021/04/22 05:37:22;;;;;;;9.30;6.10;;;;;;;31.62;29.42;159489.69;1782559;79;21301;-71
2021/04/22 05:39:54;;;;;;;8.03;6.28;;;;;;;31.59;29.56;159483.03;1776615;79;21349;-69
2021/04/22 05:42:28;;;;;;;8.65;6.15;;;;;;;31.67;29.77;159504.36;1759550;81;21257;-72
2021/04/22 05:45:00;;;;;;;8.20;5.95;;;;;;;31.79;29.52;159535.06;1770872;79;21385;-70
2021/04/22 05:47:33;;;;;;;7.62;5.53;;;;;;;31.97;29.35;159583.06;1789684;78;21219;-71
2021/04/22 05:50:06;;;;;;;8.20;5.72;;;;;;;31.85;29.27;159551.05;1771797;79;21947;-70
2021/04/22 05:52:38;;;;;;;10.28;5.72;;;;;;;31.98;29.19;159587.09;1764298;80;21352;-69
2021/04/22 05:55:12;;;;;;;9.45;5.83;;;;;;;32.02;29.21;159597.73;1784290;78;21356;-68
2021/04/22 05:57:44;;;;;;;6.58;5.22;;;;;;;31.83;29.26;159545.75;1775602;79;21416;-69
2021/04/22 06:00:19;;;;;;;8.25;5.40;;;;;;;32.10;29.02;159617.81;1784588;79;21625;-68
2021/04/22 06:02:51;;;;;;;11.43;5.97;;;;;;;32.01;29.02;159593.75;1774489;80;21416;-68
2021/04/22 06:05:24;;;;;;;10.38;6.08;;;;;;;32.04;29.08;159603.09;1772198;79;21356;-67
2021/04/22 06:07:58;;;;;;;9.30;6.08;;;;;;;32.17;28.84;159636.53;1770944;80;21344;-69
2021/04/22 06:10:30;;;;;;;9.98;5.55;;;;;;;32.30;29.18;159672.53;1775596;79;21812;-69
2021/04/22 06:13:08;;;;;;;8.05;5.90;;;;;;;32.50;28.88;159727.25;1790460;78;21427;-70
2021/04/22 06:15:41;;;;;;;7.65;5.15;;;;;;;32.67;28.67;159771.36;1781053;80;21365;-68
2021/04/22 06:18:13;;;;;;;11.73;5.35;;;;;;;32.87;28.35;159826.05;1779602;79;21368;-71
2021/04/22 06:20:45;;;;;;;9.98;6.22;;;;;;;32.89;28.25;159831.39;1785001;79;21900;-70
2021/04/22 06:23:19;;;;;;;6.95;5.10;;;;;;;32.84;28.43;159816.72;1780646;79;21707;-70
2021/04/22 06:25:52;;;;;;;7.85;5.28;;;;;;;32.90;28.11;159834.06;1779571;79;21697;-70
2021/04/22 06:28:24;;;;;;;10.82;7.15;;;;;;;32.99;27.99;159858.09;1775141;79;21348;-70
2021/04/22 06:30:56;;;;;;;7.33;5.30;;;;;;;33.08;28.00;159880.80;1792215;79;21329;-70
2021/04/22 06:33:28;;;;;;;9.88;6.08;;;;;;;33.25;27.95;159927.58;1775982;79;21349;-69
2021/04/22 06:36:01;;;;;;;7.60;4.90;;;;;;;33.44;27.67;159978.36;1783171;79;21356;-70
2021/04/22 06:38:33;;;;;;;9.63;6.00;;;;;;;33.79;27.51;160073.22;1795840;79;21218;-71
2021/04/22 06:41:06;;;;;;;6.45;4.65;;;;;;;34.09;27.31;160152.09;1793811;79;21360;-72
2021/04/22 06:43:39;;;;;;;6.37;4.70;;;;;;;33.96;27.52;160117.30;1785958;79;21371;-71
2021/04/22 06:46:12;;;;;;;9.43;4.65;;;;;;;34.06;27.25;160145.37;1781372;79;21309;-70
2021/04/22 06:48:46;;;;;;;6.80;4.85;;;;;;;34.10;27.27;160154.78;1789819;79;21871;-72
2021/04/22 06:51:19;;;;;;;7.70;4.87;;;;;;;34.17;27.10;160176.12;1791910;79;21408;-71
2021/04/22 06:53:52;;;;;;;5.70;4.30;;;;;;;34.34;27.11;160221.59;1790708;79;21335;-72
2021/04/22 06:56:24;;;;;;;7.83;4.65;;;;;;;34.50;27.19;160263.02;1786172;79;21305;-71
2021/04/22 06:59:09;;;;;;;7.10;4.35;;;;;;;34.49;26.95;160261.64;1776503;79;21226;-69
2021/04/22 07:01:49;;;;;;;6.03;4.00;;;;;;;34.60;26.79;160289.78;1796599;79;21393;-70
2021/04/22 07:04:22;;;;;;;6.12;4.60;;;;;;;34.64;26.99;160301.81;1793888;79;21427;-81
2021/04/22 07:06:57;;;;;;;7.22;4.62;;;;;;;34.57;26.98;160283.13;1791213;79;21155;-78
2021/04/22 07:09:35;;;;;;;5.90;4.03;;;;;;;34.52;26.97;160268.38;1792768;79;21258;-71
2021/04/22 07:12:11;;;;;;;7.40;5.15;;;;;;;34.46;26.42;160252.30;1782291;79;21948;-70
2021/04/22 07:14:47;;;;;;;5.67;4.25;;;;;;;34.41;26.74;160240.28;1787173;79;22124;-73
2021/04/22 07:17:21;;;;;;;8.65;4.55;;;;;;;34.20;27.06;160184.16;1795155;79;21277;-71
2021/04/22 07:19:56;;;;;;;5.72;4.12;;;;;;;34.48;26.85;160257.66;1790893;79;21249;-71
2021/04/22 07:22:29;;;;;;;5.80;4.15;;;;;;;34.64;26.30;160301.81;1793053;79;21201;-72
2021/04/22 07:25:02;;;;;;;5.65;4.22;;;;;;;34.93;26.46;160378.00;1788533;79;21223;-72
2021/04/22 07:27:35;;;;;;;5.80;3.98;;;;;;;35.05;26.12;160410.09;1789064;79;21345;-73
2021/04/22 07:30:10;;;;;;;5.03;3.65;;;;;;;34.99;26.11;160394.06;1791758;79;21704;-71
2021/04/22 07:32:43;;;;;;;5.75;4.05;;;;;;;34.90;26.22;160369.97;1760224;80;21351;-73
2021/04/22 07:35:18;;;;;;;6.08;3.80;;;;;;;35.11;26.16;160426.22;1783318;79;21179;-70
2021/04/22 07:37:51;;;;;;;5.42;3.98;;;;;;;35.32;25.92;160485.03;1783563;79;21371;-72
2021/04/22 07:40:27;;;;;;;4.67;3.40;;;;;;;35.39;25.68;160503.75;1780986;79;21321;-72
2021/04/22 07:43:00;;;;;;;6.50;4.08;;;;;;;35.59;25.62;160557.28;1755074;80;21166;-75
2021/04/22 07:45:37;;;;;;;4.90;3.35;;;;;;;35.66;25.59;160574.66;1776953;79;21327;-74
2021/04/22 07:48:11;;;;;;;6.75;3.65;;;;;;;35.72;25.39;160592.06;1783045;78;21328;-71
2021/04/22 07:50:43;;;;;;;6.33;3.45;;;;;;;35.77;25.01;160604.09;1783637;79;21372;-71
2021/04/22 07:53:15;;;;;;;5.37;3.30;;;;;;;35.77;25.22;160605.45;1765531;79;21300;-69
2021/04/22 07:55:48;;;;;;;3.80;3.05;;;;;;;35.90;25.21;160638.87;1782246;79;21813;-69
2021/04/22 07:58:20;;;;;;;3.87;3.20;;;;;;;36.08;24.38;160689.80;1767498;79;21199;-70
2021/04/22 08:00:53;;;;;;;5.08;3.37;;;;;;;36.03;24.28;160675.09;1778372;80;21214;-75
2021/04/22 08:03:25;;;;;;;4.30;2.70;;;;;;;36.00;24.33;160667.05;1770670;79;21371;-73
2021/04/22 08:05:58;;;;;;;3.33;2.58;;;;;;;36.08;24.40;160688.44;1773879;80;21233;-70
2021/04/22 08:08:31;;;;;;;3.33;2.52;;;;;;;36.10;23.70;160695.16;1771929;80;21271;-72
2021/04/22 08:11:04;;;;;;;3.98;2.52;;;;;;;36.23;23.76;160728.59;1776710;79;21942;-70
2021/04/22 08:13:38;;;;;;;4.97;2.77;;;;;;;36.10;23.42;160695.16;1765195;79;21268;-71
2021/04/22 08:16:11;;;;;;;5.35;2.92;;;;;;;36.19;23.39;160719.23;1776895;79;21257;-71
2021/04/22 08:18:46;;;;;;;3.83;3.00;;;;;;;36.13;23.73;160701.84;1781106;79;21899;-71
2021/04/22 08:21:19;;;;;;;4.00;2.65;;;;;;;36.10;23.56;160695.16;1776236;79;21903;-71
2021/04/22 08:23:52;;;;;;;3.77;3.12;;;;;;;36.10;23.73;160693.80;1773045;79;21859;-71
2021/04/22 08:26:24;;;;;;;3.90;2.45;;;;;;;36.32;23.64;160752.66;1786031;79;21399;-72
2021/04/22 08:28:56;;;;;;;4.42;2.83;;;;;;;36.42;23.09;160780.78;1781230;79;21840;-71
2021/04/22 08:31:31;;;;;;;3.30;2.52;;;;;;;36.64;23.57;160839.72;1787484;79;21439;-72
2021/04/22 08:34:08;;;;;;;6.00;2.80;;;;;;;36.58;23.35;160822.31;1790307;79;21147;-72
2021/04/22 08:36:38;;;;;;;5.40;2.87;;;;;;;36.53;23.42;160808.91;1789595;79;21182;-73
2021/04/22 08:39:17;;;;;;;4.95;2.80;;;;;;;36.88;23.49;160903.97;1790240;79;21214;-72
2021/04/22 08:41:50;;;;;;;3.52;2.72;;;;;;;37.11;23.40;160966.91;1790351;79;21879;-72
2021/04/22 08:44:25;;;;;;;5.17;3.50;;;;;;;37.43;23.19;161052.70;1793944;79;21439;-73
2021/04/22 08:47:00;;;;;;;3.85;2.80;;;;;;;37.45;22.59;161056.70;1789787;79;21282;-74
2021/04/22 08:49:37;;;;;;;3.05;2.72;;;;;;;37.50;23.22;161071.44;1792804;79;21319;-71
2021/04/22 08:52:13;;;;;;;4.03;3.10;;;;;;;37.80;23.59;161150.50;1768613;79;21819;-71
2021/04/22 08:54:48;;;;;;;5.87;3.02;;;;;;;38.63;22.58;161374.28;1791616;79;21253;-71
2021/04/22 08:57:23;;;;;;;7.10;2.95;;;;;;;39.79;21.83;161688.16;1783065;79;21353;-69
2021/04/22 09:00:00;;;;;;;4.40;3.00;;;;;;;40.16;21.33;161788.80;1778328;79;21365;-71
2021/04/22 09:02:33;;;;;;;4.55;3.00;;;;;;;39.58;21.65;161631.84;1794792;79;21340;-70
2021/04/22 09:05:06;;;;;;;5.67;2.60;;;;;;;39.36;21.60;161571.44;1780773;79;21764;-70
2021/04/22 09:07:40;;;;;;;5.35;3.27;;;;;;;39.14;21.72;161512.44;1785870;79;21211;-70
2021/04/22 09:10:16;;;;;;;5.87;3.33;;;;;;;38.89;21.89;161444.05;1781391;79;21257;-68
2021/04/22 09:13:05;;;;;;;8.88;3.42;;;;;;;39.02;21.91;161480.22;1790032;79;21175;-70
2021/04/22 09:15:42;;;;;;;4.20;3.20;;;;;;;38.96;21.66;161464.16;1791191;79;21310;-68
2021/04/22 09:18:17;;;;;;;5.35;3.22;;;;;;;38.95;21.73;161461.47;1792464;80;21887;-70
2021/04/22 09:20:53;;;;;;;3.95;3.35;;;;;;;38.92;22.08;161453.42;1790444;79;21345;-79
2021/04/22 09:23:28;;;;;;;5.17;3.25;;;;;;;38.59;22.05;161364.91;1789870;79;22147;-78
2021/04/22 09:26:10;;;;;;;5.05;3.67;;;;;;;38.49;22.02;161336.75;1777670;79;21217;-73
2021/04/22 09:28:44;;;;;;;5.92;3.10;;;;;;;38.23;21.97;161268.44;1794343;79;21860;-75
2021/04/22 09:31:27;;;;;;;5.10;2.90;;;;;;;38.21;22.56;161263.02;1790783;79;21391;-69
2021/04/22 09:34:12;;;;;;;4.12;2.95;;;;;;;38.25;22.44;161272.48;1800395;79;21359;-72
2021/04/22 09:36:49;;;;;;;4.55;3.10;;;;;;;38.81;21.83;161423.94;1815510;79;21169;-71
2021/04/22 09:39:24;;;;;;;3.05;2.75;;;;;;;39.28;21.33;161551.36;1815236;79;21150;-71
2021/04/22 09:42:02;;;;;;;3.40;2.40;;;;;;;40.54;20.29;161889.52;1813481;79;21367;-74
2021/04/22 09:44:36;;;;;;;5.60;3.20;;;;;;;41.28;20.05;162090.91;1813253;79;21344;-72
2021/04/22 09:47:17;;;;;;;5.53;3.02;;;;;;;40.99;20.31;162013.03;1802768;79;21384;-72
2021/04/22 09:49:59;;;;;;;4.42;3.22;;;;;;;40.16;20.73;161788.80;1805426;79;21359;-74
2021/04/22 09:52:38;;;;;;;3.22;2.92;;;;;;;39.45;20.92;161595.61;1803421;79;21238;-70
2021/04/22 09:55:15;;;;;;;4.70;3.27;;;;;;;38.71;21.16;161395.81;1804583;79;21364;-74
2021/04/22 09:57:48;;;;;;;4.05;3.30;;;;;;;37.79;25.56;161149.12;1801037;79;21178;-74
2021/04/22 10:00:30;;;;;;;4.37;3.05;;;;;;;36.58;25.17;160822.31;1803009;79;21328;-71
2021/04/22 10:03:09;;;;;;;4.42;3.77;;;;;;;36.62;25.38;160834.34;1804439;79;21348;-73
2021/04/22 10:05:46;;;;;;;6.67;4.33;;;;;;;36.27;25.18;160740.63;1802977;79;21308;-73
2021/04/22 10:08:19;;;;;;;4.58;3.65;;;;;;;35.74;43.14;160597.42;1779886;79;21602;-76
2021/04/22 10:11:04;;;;;;;4.33;3.47;;;;;;;35.92;32.58;160645.59;1804667;79;21222;-76
2021/04/22 10:13:48;;;;;;;7.90;3.45;;;;;;;36.46;31.62;160791.50;1803394;79;21191;-78
2021/04/22 10:16:34;;;;;;;5.20;3.10;;;;;;;38.68;28.69;161389.08;1804717;79;21681;-75
2021/04/22 10:19:19;;;;;;;5.53;2.98;;;;;;;41.37;23.00;162113.73;1803865;79;21354;-81
2021/04/22 10:21:55;;;;;;;3.45;2.87;;;;;;;42.84;20.67;162511.48;1801709;79;21927;-79
2021/04/22 10:24:29;;;;;;;3.05;2.75;;;;;;;42.94;20.10;162539.72;1802372;79;21336;-80
2021/04/22 10:27:03;;;;;;;4.47;2.60;;;;;;;43.88;20.00;162793.91;1802204;79;21357;-78
2021/04/22 10:29:36;;;;;;;5.67;2.75;;;;;;;44.38;19.18;162928.44;1803260;79;21364;-79
2021/04/22 10:32:09;;;;;;;4.22;2.35;;;;;;;44.91;19.02;163071.05;1805449;79;21304;-79
2021/04/22 10:34:42;;;;;;;3.98;2.58;;;;;;;44.80;18.09;163040.12;1773161;79;21323;-80
2021/04/22 10:37:14;;;;;;;6.35;3.08;;;;;;;43.94;18.13;162808.69;1783173;79;21804;-82
2021/04/22 10:39:48;;;;;;;3.33;2.45;;;;;;;42.36;18.85;162382.45;1777009;79;21246;-77
2021/04/22 10:42:21;;;;;;;3.15;2.70;;;;;;;41.46;19.60;162137.89;1788076;79;21268;-81
2021/04/22 10:44:53;;;;;;;3.85;2.65;;;;;;;40.42;20.44;161857.31;1783344;79;21165;-79
2021/04/22 10:47:32;;;;;;;3.33;2.75;;;;;;;39.52;20.80;161615.78;1850390;75;22236;-80
2021/04/22 10:50:14;;;;;;;2.72;2.20;;;;;;;38.84;21.30;161430.62;1823555;77;21241;-83
2021/04/22 10:52:50;;;;;;;3.35;2.12;;;;;;;38.81;21.14;161423.94;1792117;77;21422;-82
2021/04/22 10:55:31;;;;;;;4.22;1.90;;;;;;;39.27;21.25;161548.69;1822311;77;21368;-82
2021/04/22 10:58:32;;;;;;;5.30;2.15;;;;;;;39.33;20.66;161564.75;1824638;77;21178;-81
2021/04/22 11:01:11;;;;;;;2.75;2.00;;;;;;;39.73;20.32;161670.72;1822855;77;21343;-79
2021/04/22 11:03:45;;;;;;;2.92;2.17;;;;;;;41.12;19.52;162047.94;1820995;77;21241;-81
2021/04/22 11:06:21;;;;;;;2.10;1.90;;;;;;;41.82;19.13;162234.63;1762592;80;21241;-80
2021/04/22 11:08:55;;;;;;;7.50;2.45;;;;;;;42.75;18.39;162486.00;1761591;79;21863;-79
2021/04/22 11:11:38;;;;;;;4.20;2.52;;;;;;;42.10;18.73;162312.59;1766820;79;21367;-80
2021/04/22 11:14:10;;;;;;;3.30;2.25;;;;;;;41.01;19.96;162017.03;1758872;79;21217;-80
2021/04/22 11:16:53;;;;;;;2.25;2.05;;;;;;;39.86;20.49;161706.97;1763670;79;21426;-80
2021/04/22 11:19:36;;;;;;;3.33;1.90;;;;;;;40.24;20.13;161810.30;1727917;80;21211;-80
2021/04/22 11:22:19;;;;;;;3.00;2.58;;;;;;;42.33;18.62;162373.00;1718451;82;21333;-81
2021/04/22 11:25:01;;;;;;;2.77;2.12;;;;;;;44.75;17.54;163028.03;1741554;81;22636;-80
2021/04/22 11:27:52;;;;;;;2.10;1.90;;;;;;;45.96;16.75;163356.50;1744873;81;21995;-80
2021/04/22 11:30:29;;;;;;;3.15;2.10;;;;;;;47.16;16.47;163681.23;1739368;81;21209;-78
2021/04/22 11:33:02;;;;;;;4.03;2.75;;;;;;;46.81;16.46;163585.58;1740303;81;21189;-78
2021/04/22 11:35:36;;;;;;;4.47;2.65;;;;;;;45.46;17.19;163219.20;1741015;81;21743;-80
2021/04/22 11:38:10;;;;;;;4.65;2.62;;;;;;;43.81;17.93;162772.36;1741355;81;21743;-80
2021/04/22 11:40:46;;;;;;;5.17;2.92;;;;;;;42.74;18.52;162484.62;1741865;81;21256;-81
2021/04/22 11:43:34;;;;;;;3.85;2.65;;;;;;;43.23;18.78;162617.69;1742009;81;21241;-79
2021/04/22 11:46:02;;;;;;;2.95;2.25;;;;;;;43.86;17.96;162787.14;1738667;81;21228;-81
2021/04/22 11:48:41;;;;;;;3.55;2.27;;;;;;;43.08;17.95;162577.36;1733418;81;21296;-83
2021/04/22 11:51:14;;;;;;;3.42;2.30;;;;;;;42.70;18.12;162472.47;1722725;82;21720;-80
2021/04/22 11:53:47;;;;;;;16.75;3.10;;;;;;;42.66;18.06;162463.09;1716913;81;21729;-86
2021/04/22 11:56:22;;;;;;;4.05;2.92;;;;;;;37.85;100.00;161165.23;1726506;82;22011;-78